sensor_id;sensor_type;location;lat;lon;timestamp;temperature;humidity
26947;DHT22;14501;52.282;10.560;2022-12-08T00:01:08;3.90;99.90
26947;DHT22;14501;52.282;10.560;2022-12-08T00:03:35;3.10;99.90
26947;DHT22;14501;52.282;10.560;2022-12-08T00:06:01;3.10;99.90
26947;DHT22;14501;52.282;10.560;2022-12-08T00:08:46;3.10;99.90
26947;DHT22;14501;52.282;10.560;2022-12-08T00:11:31;3.10;99.90
26947;DHT22;14501;52.282;10.560;2022-12-08T00:13:57;3.10;99.90
26947;DHT22;14501;52.282;10.560;2022-12-08T00:16:23;3.10;99.90
26947;DHT22;14501;52.282;10.560;2022-12-08T00:18:48;3.20;99.90
26947;DHT22;14501;52.282;10.560;2022-12-08T00:21:14;3.10;99.90
26947;DHT22;14501;52.282;10.560;2022-12-08T00:23:40;3.10;99.90
26947;DHT22;14501;52.282;10.560;2022-12-08T00:26:05;3.80;99.90
26947;DHT22;14501;52.282;10.560;2022-12-08T00:28:32;3.00;99.90
26947;DHT22;14501;52.282;10.560;2022-12-08T00:30:59;3.10;99.90
26947;DHT22;14501;52.282;10.560;2022-12-08T00:33:26;3.00;99.90
26947;DHT22;14501;52.282;10.560;2022-12-08T00:35:53;3.00;99.90
26947;DHT22;14501;52.282;10.560;2022-12-08T00:38:18;3.00;99.90
26947;DHT22;14501;52.282;10.560;2022-12-08T00:40:45;3.00;99.90
26947;DHT22;14501;52.282;10.560;2022-12-08T00:43:10;3.00;99.90
26947;DHT22;14501;52.282;10.560;2022-12-08T00:45:36;3.00;99.90
26947;DHT22;14501;52.282;10.560;2022-12-08T00:48:02;3.00;99.90
26947;DHT22;14501;52.282;10.560;2022-12-08T00:50:27;3.00;99.90
26947;DHT22;14501;52.282;10.560;2022-12-08T00:52:53;3.00;99.90
26947;DHT22;14501;52.282;10.560;2022-12-08T00:55:18;3.00;99.90
26947;DHT22;14501;52.282;10.560;2022-12-08T00:57:44;3.00;99.90
26947;DHT22;14501;52.282;10.560;2022-12-08T01:00:10;3.00;99.90
26947;DHT22;14501;52.282;10.560;2022-12-08T01:02:36;3.00;99.90
26947;DHT22;14501;52.282;10.560;2022-12-08T01:05:01;3.00;99.90
26947;DHT22;14501;52.282;10.560;2022-12-08T01:07:27;3.00;99.90
26947;DHT22;14501;52.282;10.560;2022-12-08T01:09:53;3.00;99.90
26947;DHT22;14501;52.282;10.560;2022-12-08T01:12:18;2.90;99.90
26947;DHT22;14501;52.282;10.560;2022-12-08T01:14:44;3.10;99.90
26947;DHT22;14501;52.282;10.560;2022-12-08T01:17:09;3.00;99.90
26947;DHT22;14501;52.282;10.560;2022-12-08T01:19:36;2.90;99.90
26947;DHT22;14501;52.282;10.560;2022-12-08T01:22:01;2.90;99.90
26947;DHT22;14501;52.282;10.560;2022-12-08T01:24:27;3.00;99.90
26947;DHT22;14501;52.282;10.560;2022-12-08T01:26:52;2.90;99.90
26947;DHT22;14501;52.282;10.560;2022-12-08T01:29:18;2.90;99.90
26947;DHT22;14501;52.282;10.560;2022-12-08T01:31:44;3.00;99.90
26947;DHT22;14501;52.282;10.560;2022-12-08T01:34:12;2.90;99.90
26947;DHT22;14501;52.282;10.560;2022-12-08T01:36:40;3.00;99.90
26947;DHT22;14501;52.282;10.560;2022-12-08T01:39:11;3.00;99.90
26947;DHT22;14501;52.282;10.560;2022-12-08T01:41:38;3.00;99.90
26947;DHT22;14501;52.282;10.560;2022-12-08T01:46:40;3.10;99.90
26947;DHT22;14501;52.282;10.560;2022-12-08T01:54:11;3.10;99.90
26947;DHT22;14501;52.282;10.560;2022-12-08T01:59:25;3.10;99.90
26947;DHT22;14501;52.282;10.560;2022-12-08T02:01:51;3.10;99.90
26947;DHT22;14501;52.282;10.560;2022-12-08T02:04:16;3.10;99.90
26947;DHT22;14501;52.282;10.560;2022-12-08T02:06:43;3.10;99.90
26947;DHT22;14501;52.282;10.560;2022-12-08T02:09:09;3.10;99.90
26947;DHT22;14501;52.282;10.560;2022-12-08T02:11:35;3.10;99.90
26947;DHT22;14501;52.282;10.560;2022-12-08T02:14:03;3.10;99.90
26947;DHT22;14501;52.282;10.560;2022-12-08T02:22:12;3.00;99.90
26947;DHT22;14501;52.282;10.560;2022-12-08T02:27:40;3.00;99.90
26947;DHT22;14501;52.282;10.560;2022-12-08T02:40:44;2.80;99.90
26947;DHT22;14501;52.282;10.560;2022-12-08T02:43:41;2.70;99.90
26947;DHT22;14501;52.282;10.560;2022-12-08T02:46:11;2.70;99.90
26947;DHT22;14501;52.282;10.560;2022-12-08T02:48:38;2.60;99.90
26947;DHT22;14501;52.282;10.560;2022-12-08T02:51:04;2.50;99.90
26947;DHT22;14501;52.282;10.560;2022-12-08T02:53:31;2.50;99.90
26947;DHT22;14501;52.282;10.560;2022-12-08T02:59:23;2.40;99.90
26947;DHT22;14501;52.282;10.560;2022-12-08T03:04:47;2.30;99.90
26947;DHT22;14501;52.282;10.560;2022-12-08T03:10:41;2.30;99.90
26947;DHT22;14501;52.282;10.560;2022-12-08T03:13:15;2.20;99.90
26947;DHT22;14501;52.282;10.560;2022-12-08T03:15:44;2.20;99.90
26947;DHT22;14501;52.282;10.560;2022-12-08T03:18:14;2.10;99.90
26947;DHT22;14501;52.282;10.560;2022-12-08T03:20:41;3.50;99.90
26947;DHT22;14501;52.282;10.560;2022-12-08T03:23:11;2.00;99.90
26947;DHT22;14501;52.282;10.560;2022-12-08T03:25:43;2.00;99.90
26947;DHT22;14501;52.282;10.560;2022-12-08T03:28:09;2.00;99.90
26947;DHT22;14501;52.282;10.560;2022-12-08T03:30:38;2.10;99.90
26947;DHT22;14501;52.282;10.560;2022-12-08T03:33:11;2.10;99.90
26947;DHT22;14501;52.282;10.560;2022-12-08T03:35:39;2.10;99.90
26947;DHT22;14501;52.282;10.560;2022-12-08T03:38:08;2.20;99.90
26947;DHT22;14501;52.282;10.560;2022-12-08T03:40:35;2.00;99.90
26947;DHT22;14501;52.282;10.560;2022-12-08T03:43:01;2.20;99.90
26947;DHT22;14501;52.282;10.560;2022-12-08T03:45:27;2.20;99.90
26947;DHT22;14501;52.282;10.560;2022-12-08T03:47:53;2.30;99.90
26947;DHT22;14501;52.282;10.560;2022-12-08T03:50:19;2.30;99.90
26947;DHT22;14501;52.282;10.560;2022-12-08T03:52:44;2.40;99.90
26947;DHT22;14501;52.282;10.560;2022-12-08T03:55:10;2.40;99.90
26947;DHT22;14501;52.282;10.560;2022-12-08T03:57:36;2.30;99.90
26947;DHT22;14501;52.282;10.560;2022-12-08T04:00:06;2.50;99.90
26947;DHT22;14501;52.282;10.560;2022-12-08T04:02:32;2.60;99.90
26947;DHT22;14501;52.282;10.560;2022-12-08T04:04:58;3.30;99.90
26947;DHT22;14501;52.282;10.560;2022-12-08T04:07:24;2.50;99.90
26947;DHT22;14501;52.282;10.560;2022-12-08T04:12:15;2.50;99.90
26947;DHT22;14501;52.282;10.560;2022-12-08T04:14:41;3.90;99.90
26947;DHT22;14501;52.282;10.560;2022-12-08T04:17:06;2.30;99.90
26947;DHT22;14501;52.282;10.560;2022-12-08T04:19:32;2.40;99.90
26947;DHT22;14501;52.282;10.560;2022-12-08T04:21:57;2.40;99.90
26947;DHT22;14501;52.282;10.560;2022-12-08T04:24:23;2.30;99.90
26947;DHT22;14501;52.282;10.560;2022-12-08T04:26:49;2.30;99.90
26947;DHT22;14501;52.282;10.560;2022-12-08T04:29:15;4.20;99.90
26947;DHT22;14501;52.282;10.560;2022-12-08T04:31:40;2.30;99.90
26947;DHT22;14501;52.282;10.560;2022-12-08T04:34:06;2.20;99.90
26947;DHT22;14501;52.282;10.560;2022-12-08T04:36:32;2.50;99.90
26947;DHT22;14501;52.282;10.560;2022-12-08T04:38:58;2.20;99.90
26947;DHT22;14501;52.282;10.560;2022-12-08T04:43:49;2.40;99.90
26947;DHT22;14501;52.282;10.560;2022-12-08T04:46:15;2.40;99.90
26947;DHT22;14501;52.282;10.560;2022-12-08T04:48:40;2.60;99.90
26947;DHT22;14501;52.282;10.560;2022-12-08T04:51:06;2.80;99.90
26947;DHT22;14501;52.282;10.560;2022-12-08T04:53:37;2.60;99.90
26947;DHT22;14501;52.282;10.560;2022-12-08T04:56:03;2.40;99.90
26947;DHT22;14501;52.282;10.560;2022-12-08T04:58:29;2.50;99.90
26947;DHT22;14501;52.282;10.560;2022-12-08T05:00:54;2.60;99.90
26947;DHT22;14501;52.282;10.560;2022-12-08T05:03:20;2.50;99.90
26947;DHT22;14501;52.282;10.560;2022-12-08T05:05:45;2.50;99.90
26947;DHT22;14501;52.282;10.560;2022-12-08T05:08:11;4.20;99.90
26947;DHT22;14501;52.282;10.560;2022-12-08T05:10:37;4.60;99.90
26947;DHT22;14501;52.282;10.560;2022-12-08T05:13:03;2.50;99.90
26947;DHT22;14501;52.282;10.560;2022-12-08T05:15:28;2.50;99.90
26947;DHT22;14501;52.282;10.560;2022-12-08T05:17:54;2.40;99.90
26947;DHT22;14501;52.282;10.560;2022-12-08T05:20:20;3.00;99.90
26947;DHT22;14501;52.282;10.560;2022-12-08T05:22:45;2.50;99.90
26947;DHT22;14501;52.282;10.560;2022-12-08T05:25:11;2.40;99.90
26947;DHT22;14501;52.282;10.560;2022-12-08T05:27:36;2.30;99.90
26947;DHT22;14501;52.282;10.560;2022-12-08T05:30:02;2.20;99.90
26947;DHT22;14501;52.282;10.560;2022-12-08T05:32:28;2.20;99.90
26947;DHT22;14501;52.282;10.560;2022-12-08T05:34:54;4.20;99.90
26947;DHT22;14501;52.282;10.560;2022-12-08T05:37:19;2.20;99.90
26947;DHT22;14501;52.282;10.560;2022-12-08T05:39:45;2.30;99.90
26947;DHT22;14501;52.282;10.560;2022-12-08T05:42:10;2.20;99.90
26947;DHT22;14501;52.282;10.560;2022-12-08T05:44:36;2.20;99.90
26947;DHT22;14501;52.282;10.560;2022-12-08T05:47:01;2.20;99.90
26947;DHT22;14501;52.282;10.560;2022-12-08T05:49:27;2.20;99.90
26947;DHT22;14501;52.282;10.560;2022-12-08T05:54:19;2.20;99.90
26947;DHT22;14501;52.282;10.560;2022-12-08T05:56:46;4.00;99.90
26947;DHT22;14501;52.282;10.560;2022-12-08T05:59:12;2.10;99.90
26947;DHT22;14501;52.282;10.560;2022-12-08T06:01:38;1.80;99.90
26947;DHT22;14501;52.282;10.560;2022-12-08T06:04:04;2.10;99.90
26947;DHT22;14501;52.282;10.560;2022-12-08T06:06:30;2.20;99.90
26947;DHT22;14501;52.282;10.560;2022-12-08T06:08:58;3.10;99.90
26947;DHT22;14501;52.282;10.560;2022-12-08T06:11:26;2.10;99.90
26947;DHT22;14501;52.282;10.560;2022-12-08T06:13:53;2.30;99.90
26947;DHT22;14501;52.282;10.560;2022-12-08T06:16:20;2.20;99.90
26947;DHT22;14501;52.282;10.560;2022-12-08T06:18:45;2.30;99.90
26947;DHT22;14501;52.282;10.560;2022-12-08T06:21:16;2.40;99.90
26947;DHT22;14501;52.282;10.560;2022-12-08T06:23:43;2.20;99.90
26947;DHT22;14501;52.282;10.560;2022-12-08T06:26:13;2.30;99.90
26947;DHT22;14501;52.282;10.560;2022-12-08T06:28:40;2.50;99.90
26947;DHT22;14501;52.282;10.560;2022-12-08T06:31:09;3.40;99.90
26947;DHT22;14501;52.282;10.560;2022-12-08T06:33:36;2.60;99.90
26947;DHT22;14501;52.282;10.560;2022-12-08T06:36:03;2.60;99.90
26947;DHT22;14501;52.282;10.560;2022-12-08T06:38:29;2.70;99.90
26947;DHT22;14501;52.282;10.560;2022-12-08T06:40:56;2.70;99.90
26947;DHT22;14501;52.282;10.560;2022-12-08T06:43:22;2.80;99.90
26947;DHT22;14501;52.282;10.560;2022-12-08T06:45:48;5.20;99.90
26947;DHT22;14501;52.282;10.560;2022-12-08T06:48:14;2.80;99.90
26947;DHT22;14501;52.282;10.560;2022-12-08T06:50:40;2.90;99.90
26947;DHT22;14501;52.282;10.560;2022-12-08T06:53:05;2.90;99.90
26947;DHT22;14501;52.282;10.560;2022-12-08T06:55:31;2.90;99.90
26947;DHT22;14501;52.282;10.560;2022-12-08T06:57:57;2.90;99.90
26947;DHT22;14501;52.282;10.560;2022-12-08T07:00:23;2.80;99.90
26947;DHT22;14501;52.282;10.560;2022-12-08T07:02:49;2.80;99.90
26947;DHT22;14501;52.282;10.560;2022-12-08T07:05:15;2.80;99.90
26947;DHT22;14501;52.282;10.560;2022-12-08T07:07:40;2.80;99.90
26947;DHT22;14501;52.282;10.560;2022-12-08T07:10:06;2.80;99.90
26947;DHT22;14501;52.282;10.560;2022-12-08T07:12:32;3.10;99.90
26947;DHT22;14501;52.282;10.560;2022-12-08T07:14:58;3.00;99.90
26947;DHT22;14501;52.282;10.560;2022-12-08T07:17:23;3.00;99.90
26947;DHT22;14501;52.282;10.560;2022-12-08T07:22:15;3.40;99.90
26947;DHT22;14501;52.282;10.560;2022-12-08T07:24:41;3.30;99.90
26947;DHT22;14501;52.282;10.560;2022-12-08T07:27:06;3.30;99.90
26947;DHT22;14501;52.282;10.560;2022-12-08T07:29:32;3.20;99.90
26947;DHT22;14501;52.282;10.560;2022-12-08T07:31:58;3.20;99.90
26947;DHT22;14501;52.282;10.560;2022-12-08T07:34:24;3.20;99.90
26947;DHT22;14501;52.282;10.560;2022-12-08T07:36:49;3.20;99.90
26947;DHT22;14501;52.282;10.560;2022-12-08T07:39:15;3.20;99.90
26947;DHT22;14501;52.282;10.560;2022-12-08T07:41:41;3.10;99.90
26947;DHT22;14501;52.282;10.560;2022-12-08T07:44:07;3.10;99.90
26947;DHT22;14501;52.282;10.560;2022-12-08T07:46:33;3.10;99.90
26947;DHT22;14501;52.282;10.560;2022-12-08T07:49:00;3.00;99.90
26947;DHT22;14501;52.282;10.560;2022-12-08T07:51:26;3.00;99.90
26947;DHT22;14501;52.282;10.560;2022-12-08T07:53:52;3.00;99.90
26947;DHT22;14501;52.282;10.560;2022-12-08T07:56:17;3.00;99.90
26947;DHT22;14501;52.282;10.560;2022-12-08T07:58:43;5.20;99.90
26947;DHT22;14501;52.282;10.560;2022-12-08T08:01:29;3.00;99.90
26947;DHT22;14501;52.282;10.560;2022-12-08T08:03:56;3.10;99.90
26947;DHT22;14501;52.282;10.560;2022-12-08T08:06:22;3.20;99.90
26947;DHT22;14501;52.282;10.560;2022-12-08T08:08:48;3.00;99.90
26947;DHT22;14501;52.282;10.560;2022-12-08T08:11:19;3.00;99.90
26947;DHT22;14501;52.282;10.560;2022-12-08T08:13:44;3.00;99.90
26947;DHT22;14501;52.282;10.560;2022-12-08T08:16:11;3.00;99.90
26947;DHT22;14501;52.282;10.560;2022-12-08T08:18:38;2.90;99.90
26947;DHT22;14501;52.282;10.560;2022-12-08T08:21:05;3.00;99.90
26947;DHT22;14501;52.282;10.560;2022-12-08T08:23:31;2.90;99.90
26947;DHT22;14501;52.282;10.560;2022-12-08T08:26:03;2.90;99.90
26947;DHT22;14501;52.282;10.560;2022-12-08T08:28:29;4.50;99.90
26947;DHT22;14501;52.282;10.560;2022-12-08T08:30:55;3.10;99.90
26947;DHT22;14501;52.282;10.560;2022-12-08T08:33:21;3.10;99.90
26947;DHT22;14501;52.282;10.560;2022-12-08T08:35:46;3.10;99.90
26947;DHT22;14501;52.282;10.560;2022-12-08T08:38:12;3.00;99.90
26947;DHT22;14501;52.282;10.560;2022-12-08T08:40:38;3.10;99.90
26947;DHT22;14501;52.282;10.560;2022-12-08T08:43:04;3.20;99.90
26947;DHT22;14501;52.282;10.560;2022-12-08T08:45:34;4.20;99.90
26947;DHT22;14501;52.282;10.560;2022-12-08T08:48:00;3.10;99.90
26947;DHT22;14501;52.282;10.560;2022-12-08T08:52:52;3.20;99.90
26947;DHT22;14501;52.282;10.560;2022-12-08T08:55:18;4.80;99.90
26947;DHT22;14501;52.282;10.560;2022-12-08T08:57:43;3.30;99.90
26947;DHT22;14501;52.282;10.560;2022-12-08T09:00:09;3.30;99.90
26947;DHT22;14501;52.282;10.560;2022-12-08T09:02:36;3.30;99.90
26947;DHT22;14501;52.282;10.560;2022-12-08T09:05:03;3.70;99.90
26947;DHT22;14501;52.282;10.560;2022-12-08T09:07:29;3.30;99.90
26947;DHT22;14501;52.282;10.560;2022-12-08T09:09:54;3.40;99.90
26947;DHT22;14501;52.282;10.560;2022-12-08T09:12:21;3.40;99.90
26947;DHT22;14501;52.282;10.560;2022-12-08T09:14:46;3.40;99.90
26947;DHT22;14501;52.282;10.560;2022-12-08T09:17:12;3.40;99.90
26947;DHT22;14501;52.282;10.560;2022-12-08T09:22:04;3.40;99.90
26947;DHT22;14501;52.282;10.560;2022-12-08T09:24:30;3.40;99.90
26947;DHT22;14501;52.282;10.560;2022-12-08T09:26:58;3.50;99.90
26947;DHT22;14501;52.282;10.560;2022-12-08T09:29:24;3.50;99.90
26947;DHT22;14501;52.282;10.560;2022-12-08T09:31:50;3.50;99.90
26947;DHT22;14501;52.282;10.560;2022-12-08T09:34:16;5.00;99.90
26947;DHT22;14501;52.282;10.560;2022-12-08T09:36:41;3.50;99.90
26947;DHT22;14501;52.282;10.560;2022-12-08T09:41:44;3.50;99.90
26947;DHT22;14501;52.282;10.560;2022-12-08T09:46:49;3.50;99.90
26947;DHT22;14501;52.282;10.560;2022-12-08T09:49:20;4.10;99.90
26947;DHT22;14501;52.282;10.560;2022-12-08T09:51:47;3.40;99.90
26947;DHT22;14501;52.282;10.560;2022-12-08T09:54:22;3.30;99.90
26947;DHT22;14501;52.282;10.560;2022-12-08T09:56:52;3.30;99.90
26947;DHT22;14501;52.282;10.560;2022-12-08T09:59:22;3.50;99.90
26947;DHT22;14501;52.282;10.560;2022-12-08T10:01:49;3.30;99.90
26947;DHT22;14501;52.282;10.560;2022-12-08T10:04:28;3.30;99.90
26947;DHT22;14501;52.282;10.560;2022-12-08T10:06:58;3.30;99.90
26947;DHT22;14501;52.282;10.560;2022-12-08T10:10:04;3.40;99.90
26947;DHT22;14501;52.282;10.560;2022-12-08T10:12:53;3.10;99.90
26947;DHT22;14501;52.282;10.560;2022-12-08T10:15:39;3.40;99.90
26947;DHT22;14501;52.282;10.560;2022-12-08T10:18:18;3.50;99.90
26947;DHT22;14501;52.282;10.560;2022-12-08T10:20:46;3.50;99.90
26947;DHT22;14501;52.282;10.560;2022-12-08T10:25:45;3.50;99.90
26947;DHT22;14501;52.282;10.560;2022-12-08T10:28:12;3.40;99.90
26947;DHT22;14501;52.282;10.560;2022-12-08T10:30:37;3.40;99.90
26947;DHT22;14501;52.282;10.560;2022-12-08T10:33:03;3.40;99.90
26947;DHT22;14501;52.282;10.560;2022-12-08T10:38:25;3.50;99.90
26947;DHT22;14501;52.282;10.560;2022-12-08T10:40:54;3.60;99.90
26947;DHT22;14501;52.282;10.560;2022-12-08T10:43:26;3.00;99.90
26947;DHT22;14501;52.282;10.560;2022-12-08T10:45:52;3.60;99.90
26947;DHT22;14501;52.282;10.560;2022-12-08T10:48:26;3.60;99.90
26947;DHT22;14501;52.282;10.560;2022-12-08T10:50:55;3.50;99.90
26947;DHT22;14501;52.282;10.560;2022-12-08T10:53:23;3.70;99.90
26947;DHT22;14501;52.282;10.560;2022-12-08T10:55:50;5.80;99.90
26947;DHT22;14501;52.282;10.560;2022-12-08T10:58:32;3.90;99.90
26947;DHT22;14501;52.282;10.560;2022-12-08T11:01:01;4.00;99.90
26947;DHT22;14501;52.282;10.560;2022-12-08T11:03:29;4.00;99.90
26947;DHT22;14501;52.282;10.560;2022-12-08T11:06:00;4.30;99.90
26947;DHT22;14501;52.282;10.560;2022-12-08T11:08:27;4.30;99.90
26947;DHT22;14501;52.282;10.560;2022-12-08T11:10:53;4.30;99.90
26947;DHT22;14501;52.282;10.560;2022-12-08T11:13:24;4.40;99.90
26947;DHT22;14501;52.282;10.560;2022-12-08T11:15:52;4.40;99.90
26947;DHT22;14501;52.282;10.560;2022-12-08T11:18:29;4.50;99.90
26947;DHT22;14501;52.282;10.560;2022-12-08T11:21:17;4.20;99.90
26947;DHT22;14501;52.282;10.560;2022-12-08T11:23:47;4.10;99.90
26947;DHT22;14501;52.282;10.560;2022-12-08T11:26:34;4.10;99.90
26947;DHT22;14501;52.282;10.560;2022-12-08T11:29:01;4.00;99.90
26947;DHT22;14501;52.282;10.560;2022-12-08T11:31:46;3.90;99.90
26947;DHT22;14501;52.282;10.560;2022-12-08T11:34:48;4.00;99.90
26947;DHT22;14501;52.282;10.560;2022-12-08T11:37:41;4.00;99.90
26947;DHT22;14501;52.282;10.560;2022-12-08T11:40:16;4.00;99.90
26947;DHT22;14501;52.282;10.560;2022-12-08T11:45:34;4.00;99.90
26947;DHT22;14501;52.282;10.560;2022-12-08T11:48:13;4.00;99.90
26947;DHT22;14501;52.282;10.560;2022-12-08T11:51:02;4.00;99.90
26947;DHT22;14501;52.282;10.560;2022-12-08T11:53:43;4.10;99.90
26947;DHT22;14501;52.282;10.560;2022-12-08T11:56:41;4.10;99.90
26947;DHT22;14501;52.282;10.560;2022-12-08T11:59:17;4.20;99.90
26947;DHT22;14501;52.282;10.560;2022-12-08T12:01:44;4.20;99.90
26947;DHT22;14501;52.282;10.560;2022-12-08T12:04:30;4.30;99.90
26947;DHT22;14501;52.282;10.560;2022-12-08T12:07:32;4.30;99.90
26947;DHT22;14501;52.282;10.560;2022-12-08T12:21:25;4.30;99.90
26947;DHT22;14501;52.282;10.560;2022-12-08T12:24:38;4.30;99.90
26947;DHT22;14501;52.282;10.560;2022-12-08T12:26:58;4.30;99.90
26947;DHT22;14501;52.282;10.560;2022-12-08T12:29:29;4.30;99.90
26947;DHT22;14501;52.282;10.560;2022-12-08T12:31:59;4.20;99.90
26947;DHT22;14501;52.282;10.560;2022-12-08T12:34:37;5.40;99.90
26947;DHT22;14501;52.282;10.560;2022-12-08T12:37:12;5.10;99.90
26947;DHT22;14501;52.282;10.560;2022-12-08T12:40:00;4.30;99.90
26947;DHT22;14501;52.282;10.560;2022-12-08T12:47:51;4.30;99.90
26947;DHT22;14501;52.282;10.560;2022-12-08T12:55:54;4.40;99.90
26947;DHT22;14501;52.282;10.560;2022-12-08T13:03:19;4.50;99.90
26947;DHT22;14501;52.282;10.560;2022-12-08T13:05:50;4.70;99.90
26947;DHT22;14501;52.282;10.560;2022-12-08T13:08:22;4.70;99.90
26947;DHT22;14501;52.282;10.560;2022-12-08T13:11:08;4.70;99.90
26947;DHT22;14501;52.282;10.560;2022-12-08T13:13:35;4.70;99.90
26947;DHT22;14501;52.282;10.560;2022-12-08T13:16:12;4.80;99.90
26947;DHT22;14501;52.282;10.560;2022-12-08T13:18:45;4.70;99.90
26947;DHT22;14501;52.282;10.560;2022-12-08T13:21:13;4.60;99.90
26947;DHT22;14501;52.282;10.560;2022-12-08T13:26:29;4.60;99.90
26947;DHT22;14501;52.282;10.560;2022-12-08T13:34:14;4.60;99.90
26947;DHT22;14501;52.282;10.560;2022-12-08T13:36:52;4.40;99.90
26947;DHT22;14501;52.282;10.560;2022-12-08T13:39:48;4.60;99.90
26947;DHT22;14501;52.282;10.560;2022-12-08T13:45:17;4.50;99.90
26947;DHT22;14501;52.282;10.560;2022-12-08T13:47:55;4.40;99.90
26947;DHT22;14501;52.282;10.560;2022-12-08T13:53:00;4.40;99.90
26947;DHT22;14501;52.282;10.560;2022-12-08T13:58:00;4.30;99.90
26947;DHT22;14501;52.282;10.560;2022-12-08T14:00:25;4.20;99.90
26947;DHT22;14501;52.282;10.560;2022-12-08T14:02:59;4.10;99.90
26947;DHT22;14501;52.282;10.560;2022-12-08T14:05:27;4.60;99.90
26947;DHT22;14501;52.282;10.560;2022-12-08T14:08:06;3.90;99.90
26947;DHT22;14501;52.282;10.560;2022-12-08T14:10:34;4.00;99.90
26947;DHT22;14501;52.282;10.560;2022-12-08T14:13:03;4.00;99.90
26947;DHT22;14501;52.282;10.560;2022-12-08T14:15:33;3.80;99.90
26947;DHT22;14501;52.282;10.560;2022-12-08T14:17:59;3.80;99.90
26947;DHT22;14501;52.282;10.560;2022-12-08T14:20:33;3.80;99.90
26947;DHT22;14501;52.282;10.560;2022-12-08T14:22:59;3.80;99.90
26947;DHT22;14501;52.282;10.560;2022-12-08T14:25:26;3.70;99.90
26947;DHT22;14501;52.282;10.560;2022-12-08T14:28:01;3.70;99.90
26947;DHT22;14501;52.282;10.560;2022-12-08T14:30:30;3.70;99.90
26947;DHT22;14501;52.282;10.560;2022-12-08T14:32:58;3.70;99.90
26947;DHT22;14501;52.282;10.560;2022-12-08T14:38:00;3.60;99.90
26947;DHT22;14501;52.282;10.560;2022-12-08T14:40:37;3.60;99.90
26947;DHT22;14501;52.282;10.560;2022-12-08T14:48:23;3.40;99.90
26947;DHT22;14501;52.282;10.560;2022-12-08T14:51:13;3.40;99.90
26947;DHT22;14501;52.282;10.560;2022-12-08T14:53:44;3.30;99.90
26947;DHT22;14501;52.282;10.560;2022-12-08T14:59:12;3.10;99.90
26947;DHT22;14501;52.282;10.560;2022-12-08T15:01:40;3.10;99.90
26947;DHT22;14501;52.282;10.560;2022-12-08T15:09:24;2.90;99.90
26947;DHT22;14501;52.282;10.560;2022-12-08T15:12:03;2.90;99.90
26947;DHT22;14501;52.282;10.560;2022-12-08T15:14:38;2.90;99.90
26947;DHT22;14501;52.282;10.560;2022-12-08T15:19:57;2.80;99.90
26947;DHT22;14501;52.282;10.560;2022-12-08T15:22:23;2.90;99.90
26947;DHT22;14501;52.282;10.560;2022-12-08T15:24:51;2.80;99.90
26947;DHT22;14501;52.282;10.560;2022-12-08T15:27:19;2.80;99.90
26947;DHT22;14501;52.282;10.560;2022-12-08T15:29:46;2.80;99.90
26947;DHT22;14501;52.282;10.560;2022-12-08T15:32:12;2.70;99.90
26947;DHT22;14501;52.282;10.560;2022-12-08T15:34:41;2.70;99.90
26947;DHT22;14501;52.282;10.560;2022-12-08T15:37:22;2.70;99.90
26947;DHT22;14501;52.282;10.560;2022-12-08T15:39:49;2.70;99.90
26947;DHT22;14501;52.282;10.560;2022-12-08T15:42:15;2.70;99.90
26947;DHT22;14501;52.282;10.560;2022-12-08T15:44:41;2.70;99.90
26947;DHT22;14501;52.282;10.560;2022-12-08T15:47:18;2.50;99.90
26947;DHT22;14501;52.282;10.560;2022-12-08T15:49:46;2.50;99.90
26947;DHT22;14501;52.282;10.560;2022-12-08T15:52:15;2.50;99.90
26947;DHT22;14501;52.282;10.560;2022-12-08T15:54:40;2.40;99.90
26947;DHT22;14501;52.282;10.560;2022-12-08T15:57:20;2.40;99.90
26947;DHT22;14501;52.282;10.560;2022-12-08T15:59:47;2.40;99.90
26947;DHT22;14501;52.282;10.560;2022-12-08T16:02:13;2.40;99.90
26947;DHT22;14501;52.282;10.560;2022-12-08T16:04:39;2.40;99.90
26947;DHT22;14501;52.282;10.560;2022-12-08T16:07:05;2.40;99.90
26947;DHT22;14501;52.282;10.560;2022-12-08T16:09:36;2.40;99.90
26947;DHT22;14501;52.282;10.560;2022-12-08T16:12:05;2.40;99.90
26947;DHT22;14501;52.282;10.560;2022-12-08T16:14:49;2.40;99.90
26947;DHT22;14501;52.282;10.560;2022-12-08T16:17:16;2.40;99.90
26947;DHT22;14501;52.282;10.560;2022-12-08T16:22:35;2.30;99.90
26947;DHT22;14501;52.282;10.560;2022-12-08T16:25:01;2.40;99.90
26947;DHT22;14501;52.282;10.560;2022-12-08T16:27:32;2.30;99.90
26947;DHT22;14501;52.282;10.560;2022-12-08T16:30:00;2.30;99.90
26947;DHT22;14501;52.282;10.560;2022-12-08T16:32:26;2.30;99.90
26947;DHT22;14501;52.282;10.560;2022-12-08T16:34:53;2.30;99.90
26947;DHT22;14501;52.282;10.560;2022-12-08T16:37:24;2.20;99.90
26947;DHT22;14501;52.282;10.560;2022-12-08T16:39:52;2.20;99.90
26947;DHT22;14501;52.282;10.560;2022-12-08T16:42:20;2.70;99.90
26947;DHT22;14501;52.282;10.560;2022-12-08T16:45:19;2.20;99.90
26947;DHT22;14501;52.282;10.560;2022-12-08T16:47:51;2.10;99.90
26947;DHT22;14501;52.282;10.560;2022-12-08T16:50:26;2.10;99.90
26947;DHT22;14501;52.282;10.560;2022-12-08T16:52:57;2.10;99.90
26947;DHT22;14501;52.282;10.560;2022-12-08T16:55:23;2.10;99.90
26947;DHT22;14501;52.282;10.560;2022-12-08T16:57:49;2.10;99.90
26947;DHT22;14501;52.282;10.560;2022-12-08T17:00:18;2.10;99.90
26947;DHT22;14501;52.282;10.560;2022-12-08T17:02:45;2.10;99.90
26947;DHT22;14501;52.282;10.560;2022-12-08T17:05:12;2.10;99.90
26947;DHT22;14501;52.282;10.560;2022-12-08T17:07:40;2.20;99.90
26947;DHT22;14501;52.282;10.560;2022-12-08T17:10:07;2.70;99.90
26947;DHT22;14501;52.282;10.560;2022-12-08T17:12:33;2.20;99.90
26947;DHT22;14501;52.282;10.560;2022-12-08T17:15:03;2.30;99.90
26947;DHT22;14501;52.282;10.560;2022-12-08T17:17:31;2.40;99.90
26947;DHT22;14501;52.282;10.560;2022-12-08T17:19:56;2.30;99.90
26947;DHT22;14501;52.282;10.560;2022-12-08T17:22:22;2.40;99.90
26947;DHT22;14501;52.282;10.560;2022-12-08T17:24:48;2.40;99.90
26947;DHT22;14501;52.282;10.560;2022-12-08T17:27:13;2.40;99.90
26947;DHT22;14501;52.282;10.560;2022-12-08T17:29:39;2.40;99.90
26947;DHT22;14501;52.282;10.560;2022-12-08T17:32:04;2.40;99.90
26947;DHT22;14501;52.282;10.560;2022-12-08T17:34:31;2.40;99.90
26947;DHT22;14501;52.282;10.560;2022-12-08T17:36:56;2.80;99.90
26947;DHT22;14501;52.282;10.560;2022-12-08T17:39:22;2.50;99.90
26947;DHT22;14501;52.282;10.560;2022-12-08T17:41:48;2.50;99.90
26947;DHT22;14501;52.282;10.560;2022-12-08T17:44:17;2.50;99.90
26947;DHT22;14501;52.282;10.560;2022-12-08T17:46:43;2.70;99.90
26947;DHT22;14501;52.282;10.560;2022-12-08T17:49:20;2.40;99.90
26947;DHT22;14501;52.282;10.560;2022-12-08T17:51:48;2.40;99.90
26947;DHT22;14501;52.282;10.560;2022-12-08T17:54:15;2.40;99.90